Time;durP1;ratioP1;P1;durP2;ratioP2;P2;SDS_P1;SDS_P2;PMS_P1;PMS_P2;Temp;Humidity;BMP_temperature;BMP_pressure;BME280_temperature;BME280_humidity;BME280_pressure;Samples;Min_cycle;Max_cycle;Signal;HPM_P1;HPM_P2
2023/09/22 03:59:11;;;;;;;12.57;6.40;;;;;;;18.99;100.00;99724.44;5606095;31;75667;-58
2023/09/22 04:02:14;;;;;;;12.95;7.32;;;;;;;18.99;100.00;99724.44;5582973;32;34117;-58
2023/09/22 04:05:17;;;;;;;12.95;6.45;;;;;;;18.45;100.00;99725.06;5581944;31;33085;-59
2023/09/22 04:08:19;;;;;;;16.77;6.62;;;;;;;18.47;100.00;99728.19;5583243;32;33479;-58
2023/09/22 04:11:22;;;;;;;13.98;6.37;;;;;;;18.52;100.00;99725.22;5583308;32;33605;-58
2023/09/22 04:14:24;;;;;;;17.20;7.47;;;;;;;18.54;100.00;99725.69;5583070;32;34197;-58
2023/09/22 04:17:27;;;;;;;10.40;6.70;;;;;;;18.59;100.00;99735.47;5582827;31;33192;-58
2023/09/22 04:20:32;;;;;;;11.65;5.95;;;;;;;18.53;100.00;99732.22;5582898;31;33345;-58
2023/09/22 04:23:35;;;;;;;12.20;6.18;;;;;;;18.59;100.00;99735.47;5582970;32;34244;-58
2023/09/22 04:26:44;;;;;;;10.00;5.80;;;;;;;18.63;99.35;99736.34;5583069;31;33561;-58
2023/09/22 04:29:47;;;;;;;12.35;6.47;;;;;;;18.71;98.38;99740.06;5583153;31;33681;-58
2023/09/22 04:32:51;;;;;;;11.35;6.25;;;;;;;18.67;100.00;99734.50;5582814;31;33517;-58
2023/09/22 04:35:54;;;;;;;15.40;6.47;;;;;;;18.60;100.00;99739.75;5572977;32;33536;-58
2023/09/22 04:38:57;;;;;;;11.63;6.60;;;;;;;18.64;100.00;99734.41;5563276;32;34235;-58
2023/09/22 04:41:59;;;;;;;12.98;6.30;;;;;;;18.71;100.00;99738.12;5563349;32;33559;-58
2023/09/22 04:45:03;;;;;;;14.02;6.43;;;;;;;18.83;100.00;99736.47;5563277;32;34470;-58
2023/09/22 04:48:09;;;;;;;14.10;7.12;;;;;;;18.91;100.00;99740.94;5563136;32;34389;-58
2023/09/22 04:51:12;;;;;;;;;;;;;;;18.90;99.71;99742.84;5563445;32;33706;-58
2023/09/22 04:54:15;;;;;;;16.62;6.70;;;;;;;18.96;100.00;99754.25;5562660;32;33926;-58
2023/09/22 04:57:18;;;;;;;11.05;6.62;;;;;;;19.00;100.00;99755.13;5562897;32;33736;-58
2023/09/22 05:00:24;;;;;;;13.68;7.12;;;;;;;19.04;100.00;99758.72;5563226;32;34368;-58
2023/09/22 05:03:26;;;;;;;;;;;;;;;19.10;100.00;99756.50;5563162;32;33626;-58
2023/09/22 05:06:29;;;;;;;12.85;6.70;;;;;;;19.06;99.57;99758.38;5562961;32;34520;-58
2023/09/22 05:09:31;;;;;;;10.73;6.70;;;;;;;19.07;100.00;99759.94;5554255;32;33679;-56
2023/09/22 05:12:34;;;;;;;13.25;7.32;;;;;;;19.02;100.00;99755.56;5549865;32;34251;-57
2023/09/22 05:15:41;;;;;;;22.37;8.38;;;;;;;19.07;100.00;99763.44;5549738;32;33319;-57
2023/09/22 05:18:46;;;;;;;17.25;7.15;;;;;;;19.23;100.00;99758.75;5549596;32;33641;-58
2023/09/22 05:21:49;;;;;;;11.82;6.60;;;;;;;19.18;100.00;99767.22;5549867;32;34258;-58
2023/09/22 05:24:51;;;;;;;15.32;7.80;;;;;;;19.24;100.00;99773.16;5549505;32;34343;-57
2023/09/22 05:27:53;;;;;;;14.93;7.60;;;;;;;19.21;100.00;99773.88;5549505;32;33208;-57
2023/09/22 05:31:06;;;;;;;16.02;7.45;;;;;;;19.18;100.00;99775.34;5550067;32;33662;-57
2023/09/22 05:34:11;;;;;;;19.42;7.87;;;;;;;19.34;100.00;99771.84;5550035;32;34269;-57
2023/09/22 05:37:14;;;;;;;14.48;8.52;;;;;;;19.27;100.00;99769.75;5549285;32;33606;-58
2023/09/22 05:40:16;;;;;;;16.35;8.07;;;;;;;19.27;100.00;99764.31;5550099;32;33681;-57
2023/09/22 05:43:22;;;;;;;14.87;7.47;;;;;;;19.45;100.00;99753.81;5549318;32;33668;-57
2023/09/22 05:46:24;;;;;;;18.55;8.27;;;;;;;19.52;100.00;99753.97;5558894;32;34069;-57
2023/09/22 05:49:27;;;;;;;16.23;7.35;;;;;;;19.52;100.00;99750.47;5568768;32;34310;-58
2023/09/22 05:52:30;;;;;;;18.77;7.75;;;;;;;19.55;99.52;99753.28;5568867;32;34300;-57
2023/09/22 05:55:33;;;;;;;13.82;7.53;;;;;;;19.56;98.90;99760.28;5567527;32;33683;-58
2023/09/22 05:58:36;;;;;;;19.55;8.00;;;;;;;19.64;98.08;99761.25;5568828;32;34360;-58
2023/09/22 06:01:39;;;;;;;15.25;7.25;;;;;;;19.67;96.30;99763.28;5568234;32;33209;-57
2023/09/22 06:04:42;;;;;;;15.43;8.05;;;;;;;19.77;100.00;99764.63;5568807;32;34214;-57
2023/09/22 06:07:44;;;;;;;26.12;8.98;;;;;;;20.09;100.00;99762.56;5566982;32;33048;-57
2023/09/22 06:10:47;;;;;;;21.80;8.52;;;;;;;20.06;96.32;99766.78;5561468;32;33150;-57
2023/09/22 06:13:49;;;;;;;30.30;9.02;;;;;;;20.16;100.00;99773.56;5561640;32;32212;-58
2023/09/22 06:16:52;;;;;;;21.08;8.55;;;;;;;20.29;97.13;99771.50;5549083;32;33655;-57
2023/09/22 06:19:56;;;;;;;15.00;7.85;;;;;;;20.29;95.02;99774.22;5560637;32;34289;-56
2023/09/22 06:22:58;;;;;;;13.30;7.80;;;;;;;20.28;93.01;99787.03;5564995;32;34333;-57
2023/09/22 06:26:03;;;;;;;17.60;7.80;;;;;;;20.52;100.00;99779.72;5561787;32;33545;-55
2023/09/22 06:29:05;;;;;;;23.08;7.82;;;;;;;20.44;92.26;99786.16;5556501;32;34048;-56
2023/09/22 06:32:08;;;;;;;15.13;6.50;;;;;;;20.56;93.87;99783.28;5562666;32;33821;-55
2023/09/22 06:35:11;;;;;;;40.67;9.35;;;;;;;20.68;100.00;99785.84;5564338;31;33773;-56
2023/09/22 06:38:14;;;;;;;69.60;8.80;;;;;;;20.71;96.91;99787.06;5561325;32;33627;-56
2023/09/22 06:41:20;;;;;;;33.65;8.60;;;;;;;20.66;93.77;99788.13;5562311;32;33714;-56
2023/09/22 06:44:22;;;;;;;31.35;8.13;;;;;;;20.72;94.19;99786.69;5560340;32;34420;-56
2023/09/22 06:47:25;;;;;;;19.65;6.68;;;;;;;20.78;93.48;99790.69;5563007;32;33541;-55
2023/09/22 06:50:29;;;;;;;25.98;7.03;;;;;;;20.77;95.52;99791.84;5561666;32;33639;-55
2023/09/22 06:53:36;;;;;;;15.98;7.05;;;;;;;20.87;94.90;99787.72;5560288;32;34322;-56
2023/09/22 06:56:39;;;;;;;26.35;7.65;;;;;;;20.85;96.42;99792.75;5558758;32;34341;-56
2023/09/22 06:59:52;;;;;;;13.50;7.20;;;;;;;20.95;93.00;99785.91;5560322;32;33693;-56
2023/09/22 07:02:55;;;;;;;14.43;7.43;;;;;;;21.06;94.42;99800.50;5560684;32;33663;-55
2023/09/22 07:05:59;;;;;;;14.27;6.50;;;;;;;21.19;95.42;99801.06;5565613;32;34071;-57
2023/09/22 07:09:02;;;;;;;13.65;6.57;;;;;;;21.19;91.77;99806.53;5564719;32;33794;-55
2023/09/22 07:12:05;;;;;;;17.87;6.90;;;;;;;21.14;90.74;99804.91;5565322;32;34378;-56
2023/09/22 07:15:07;;;;;;;14.52;6.70;;;;;;;21.19;89.49;99804.63;5558075;32;32240;-56
2023/09/22 07:18:10;;;;;;;14.40;6.15;;;;;;;21.28;90.19;99804.34;5564976;32;33519;-56
2023/09/22 07:21:12;;;;;;;10.77;5.93;;;;;;;21.38;91.24;99811.13;5557951;32;34535;-57
2023/09/22 07:24:15;;;;;;;23.38;6.82;;;;;;;21.46;91.00;99813.62;5559473;32;34331;-57
2023/09/22 07:27:18;;;;;;;16.30;6.90;;;;;;;21.52;91.08;99820.34;5566339;32;33693;-56
2023/09/22 07:30:20;;;;;;;19.08;6.85;;;;;;;21.61;89.80;99808.34;5557091;32;33703;-57
2023/09/22 07:33:29;;;;;;;18.17;6.40;;;;;;;21.60;92.55;99807.56;5565174;32;34048;-57
2023/09/22 07:36:32;;;;;;;20.15;6.57;;;;;;;21.67;92.71;99812.34;5560634;32;33647;-57
2023/09/22 07:39:35;;;;;;;23.70;6.82;;;;;;;21.73;94.07;99816.31;5560850;32;34421;-58
2023/09/22 07:42:41;;;;;;;36.85;7.30;;;;;;;21.66;89.37;99813.50;5550304;32;33591;-57
2023/09/22 07:45:45;;;;;;;16.73;6.20;;;;;;;21.70;90.22;99814.34;5554063;32;33721;-57
2023/09/22 07:48:49;;;;;;;20.77;6.62;;;;;;;21.60;87.79;99815.75;5558550;32;34374;-57
2023/09/22 07:51:53;;;;;;;16.25;6.57;;;;;;;21.58;86.35;99816.09;5560006;32;33320;-58
2023/09/22 07:54:56;;;;;;;16.77;6.87;;;;;;;21.57;85.84;99821.94;5559812;32;33250;-57
2023/09/22 07:57:58;;;;;;;21.27;6.53;;;;;;;21.58;85.78;99823.50;5561910;32;33261;-58
2023/09/22 08:01:06;;;;;;;16.98;6.10;;;;;;;21.69;87.68;99819.00;5554581;32;33228;-57
2023/09/22 08:04:10;;;;;;;19.33;6.62;;;;;;;21.82;91.38;99822.31;5565381;32;33311;-58
2023/09/22 08:07:13;;;;;;;20.67;6.97;;;;;;;21.91;89.35;99819.28;5555275;32;33639;-57
2023/09/22 08:10:22;;;;;;;19.02;6.22;;;;;;;22.01;90.97;99821.34;5552657;32;33590;-57
2023/09/22 08:13:26;;;;;;;17.90;7.47;;;;;;;22.04;89.72;99817.91;5553696;32;33867;-58
2023/09/22 08:16:28;;;;;;;17.95;6.10;;;;;;;22.01;86.19;99816.69;5554791;32;34353;-59
2023/09/22 08:19:31;;;;;;;16.50;6.47;;;;;;;22.05;84.11;99824.91;5561248;32;34810;-58
2023/09/22 08:22:34;;;;;;;17.20;6.32;;;;;;;22.04;83.23;99823.34;5555268;32;33603;-58
2023/09/22 08:25:38;;;;;;;17.00;5.93;;;;;;;22.09;84.24;99827.72;5553800;32;33707;-58
2023/09/22 08:28:41;;;;;;;19.00;6.30;;;;;;;22.14;85.58;99828.16;5558750;32;34317;-59
2023/09/22 08:31:44;;;;;;;16.17;5.55;;;;;;;22.16;83.43;99825.87;5564004;32;33647;-58
2023/09/22 08:34:46;;;;;;;15.77;5.82;;;;;;;22.22;81.73;99821.66;5560602;32;33894;-58
2023/09/22 08:37:49;;;;;;;13.57;5.50;;;;;;;22.32;82.26;99825.69;5558935;32;33725;-59
2023/09/22 08:40:52;;;;;;;28.40;7.18;;;;;;;22.37;81.88;99825.34;5557448;32;33671;-59
2023/09/22 08:43:54;;;;;;;21.90;5.60;;;;;;;22.44;83.18;99830.88;5557040;32;33651;-59
2023/09/22 08:46:58;;;;;;;22.17;5.93;;;;;;;22.52;82.83;99829.03;5558640;32;34423;-59
2023/09/22 08:50:00;;;;;;;20.67;5.82;;;;;;;22.59;84.73;99820.91;5557630;32;33789;-59
2023/09/22 08:53:03;;;;;;;12.57;5.35;;;;;;;22.64;77.24;99817.03;5556035;32;33926;-56
2023/09/22 08:56:06;;;;;;;20.90;6.25;;;;;;;22.80;77.35;99814.06;5558858;32;34682;-57
2023/09/22 08:59:09;;;;;;;23.70;6.05;;;;;;;22.84;78.41;99815.66;5528066;32;34603;-57
2023/09/22 09:02:12;;;;;;;17.05;6.75;;;;;;;22.95;77.38;99813.84;5522688;32;33841;-58
2023/09/22 09:05:19;;;;;;;16.95;6.22;;;;;;;22.95;76.99;99827.50;5524295;32;33436;-56
2023/09/22 09:08:22;;;;;;;23.90;6.80;;;;;;;23.07;78.04;99817.44;5526998;32;33659;-57
2023/09/22 09:11:24;;;;;;;25.55;6.75;;;;;;;23.03;74.84;99811.16;5530576;32;33363;-58
2023/09/22 09:14:31;;;;;;;19.45;5.95;;;;;;;23.12;75.94;99806.97;5525610;32;33791;-57
2023/09/22 09:17:34;;;;;;;17.55;5.68;;;;;;;23.15;77.44;99811.66;5510974;32;33726;-57
2023/09/22 09:20:39;;;;;;;15.52;5.57;;;;;;;23.25;75.11;99807.44;5518681;32;34137;-57
2023/09/22 09:23:53;;;;;;;23.77;6.10;;;;;;;23.31;74.17;99805.94;5524707;32;33881;-56
2023/09/22 09:26:55;;;;;;;22.08;6.85;;;;;;;23.26;74.67;99798.06;5518591;32;34398;-57
2023/09/22 09:29:59;;;;;;;23.23;6.40;;;;;;;23.29;75.69;99797.31;5519984;32;33578;-56
2023/09/22 09:33:09;;;;;;;20.92;6.32;;;;;;;23.31;75.29;99800.47;5517444;32;33962;-57
2023/09/22 09:36:16;;;;;;;18.23;5.80;;;;;;;23.32;74.50;99793.81;5521666;32;33560;-56
2023/09/22 09:39:18;;;;;;;20.65;5.93;;;;;;;23.53;73.98;99793.16;5516635;32;34393;-57
2023/09/22 09:42:25;;;;;;;15.02;5.43;;;;;;;23.61;72.87;99785.81;5516708;32;34248;-57
2023/09/22 09:45:30;;;;;;;15.90;5.65;;;;;;;23.60;71.93;99785.00;5524790;32;34375;-57
2023/09/22 09:48:37;;;;;;;;;;;;;;;23.67;71.42;99781.50;5523349;32;34344;-57
2023/09/22 09:51:42;;;;;;;26.52;6.07;;;;;;;23.74;71.37;99775.31;5527380;32;34590;-56
2023/09/22 09:54:51;;;;;;;18.12;5.72;;;;;;;23.81;72.16;99767.94;5521552;32;33559;-57
2023/09/22 09:57:56;;;;;;;18.00;5.37;;;;;;;23.89;70.97;99757.78;5539416;32;34330;-58
2023/09/22 10:01:00;;;;;;;;;;;;;;;23.92;69.47;99755.06;5555367;32;34420;-57
2023/09/22 10:04:04;;;;;;;11.67;4.83;;;;;;;23.99;70.48;99754.31;5555397;32;34570;-57
2023/09/22 10:07:08;;;;;;;25.95;6.10;;;;;;;24.09;67.57;99747.31;5562986;32;33651;-56
2023/09/22 10:10:13;;;;;;;14.30;5.12;;;;;;;24.33;67.25;99743.03;5554916;32;33723;-58
2023/09/22 10:13:16;;;;;;;19.33;5.23;;;;;;;24.41;65.95;99730.97;5555118;32;33591;-58
2023/09/22 10:16:31;;;;;;;35.50;4.72;;;;;;;24.39;66.10;99730.53;5550966;32;34408;-58
2023/09/22 10:19:41;;;;;;;13.32;4.22;;;;;;;24.55;64.15;99738.44;5555093;32;33648;-58
2023/09/22 10:23:16;;;;;;;13.50;3.92;;;;;;;24.62;62.12;99735.69;5557628;32;33659;-58
2023/09/22 10:26:19;;;;;;;13.65;4.15;;;;;;;24.84;60.36;99736.47;5564294;32;33756;-57
2023/09/22 10:29:34;;;;;;;16.48;3.87;;;;;;;24.80;59.65;99735.69;5558749;32;33461;-57
2023/09/22 10:32:37;;;;;;;16.23;3.78;;;;;;;24.89;60.22;99729.81;5562996;32;34186;-57
2023/09/22 10:35:40;;;;;;;20.77;3.85;;;;;;;24.96;60.83;99725.09;5559994;32;33670;-57
2023/09/22 10:39:03;;;;;;;15.52;4.10;;;;;;;25.02;60.90;99723.53;5564402;32;34351;-57
2023/09/22 10:42:06;;;;;;;20.60;4.72;;;;;;;25.03;60.17;99729.78;5557481;32;33636;-58
2023/09/22 10:45:09;;;;;;;15.95;4.75;;;;;;;25.15;59.51;99717.66;5557851;32;33416;-57
2023/09/22 10:48:11;;;;;;;15.70;4.25;;;;;;;25.05;60.11;99722.75;5558598;32;34361;-57
2023/09/22 10:51:15;;;;;;;14.05;4.05;;;;;;;25.07;59.62;99717.66;5557402;32;33907;-57
2023/09/22 10:54:17;;;;;;;25.62;4.65;;;;;;;24.98;59.41;99717.25;5563558;32;33610;-57
2023/09/22 10:57:27;;;;;;;14.80;4.30;;;;;;;25.07;58.80;99716.88;5552457;32;34283;-57
2023/09/22 11:00:42;;;;;;;15.77;3.97;;;;;;;25.16;59.44;99711.00;5552968;32;33957;-57
2023/09/22 11:03:53;;;;;;;14.95;4.47;;;;;;;25.22;59.70;99703.94;5565148;32;33679;-58
2023/09/22 11:06:56;;;;;;;15.18;4.57;;;;;;;25.25;59.51;99697.66;5565951;32;34225;-58
2023/09/22 11:10:00;;;;;;;18.10;4.70;;;;;;;25.25;59.30;99708.62;5551170;32;33663;-58
2023/09/22 11:13:08;;;;;;;12.80;4.30;;;;;;;25.44;58.28;99702.69;5553986;32;33595;-58
2023/09/22 11:16:10;;;;;;;14.18;4.30;;;;;;;25.40;57.91;99701.94;5552050;32;33740;-57
2023/09/22 11:19:13;;;;;;;14.15;3.67;;;;;;;25.44;57.82;99705.44;5556251;32;33594;-58
2023/09/22 11:22:16;;;;;;;9.55;3.67;;;;;;;25.41;56.52;99692.50;5556134;32;33622;-57
2023/09/22 11:25:19;;;;;;;11.45;4.12;;;;;;;25.45;55.79;99695.25;5560919;32;34373;-58
2023/09/22 11:28:23;;;;;;;15.55;3.83;;;;;;;25.52;55.58;99695.22;5560611;32;33375;-58
2023/09/22 11:31:28;;;;;;;13.50;3.85;;;;;;;25.63;54.50;99695.16;5558998;32;34030;-57
2023/09/22 11:34:31;;;;;;;13.65;4.07;;;;;;;25.58;55.68;99693.63;5556590;32;33648;-57
2023/09/22 11:37:34;;;;;;;15.93;3.92;;;;;;;25.71;53.97;99692.00;5562055;32;32392;-58
2023/09/22 11:40:39;;;;;;;19.35;4.10;;;;;;;25.77;53.76;99690.41;5562165;32;33264;-57
2023/09/22 11:43:43;;;;;;;18.98;4.28;;;;;;;25.81;53.09;99689.63;5551906;32;33935;-57
2023/09/22 11:46:47;;;;;;;11.27;4.15;;;;;;;25.65;53.87;99692.81;5555799;32;34260;-58
2023/09/22 11:49:49;;;;;;;14.68;4.22;;;;;;;25.80;55.17;99699.84;5553454;32;33266;-57
2023/09/22 11:52:52;;;;;;;19.42;4.43;;;;;;;25.78;54.40;99694.69;5553925;32;34543;-57
2023/09/22 11:55:55;;;;;;;10.75;3.72;;;;;;;25.73;55.03;99689.63;5559660;32;33643;-57
2023/09/22 11:59:29;;;;;;;15.90;4.20;;;;;;;25.78;54.52;99696.66;5556740;32;33721;-57
2023/09/22 12:02:32;;;;;;;18.55;4.18;;;;;;;25.62;55.62;99691.62;5560536;32;33617;-57
2023/09/22 12:05:37;;;;;;;18.35;4.35;;;;;;;25.67;55.70;99688.50;5559100;32;34108;-57
2023/09/22 12:08:40;;;;;;;12.85;3.83;;;;;;;25.67;55.89;99701.44;5561439;32;33853;-58
2023/09/22 12:11:43;;;;;;;21.37;5.35;;;;;;;25.78;54.34;99702.16;5552207;32;33422;-58
2023/09/22 12:14:45;;;;;;;18.73;4.62;;;;;;;25.72;54.79;99701.00;5564511;32;33699;-58
2023/09/22 12:17:49;;;;;;;16.25;4.22;;;;;;;25.65;54.94;99703.78;5566685;32;34285;-59
2023/09/22 12:20:51;;;;;;;18.23;4.37;;;;;;;25.59;55.63;99703.41;5563602;32;33659;-59
2023/09/22 12:23:54;;;;;;;14.25;4.22;;;;;;;25.64;55.93;99710.47;5557783;32;34419;-58
2023/09/22 12:26:56;;;;;;;12.50;4.28;;;;;;;25.76;55.80;99708.06;5560014;32;34320;-59
2023/09/22 12:29:59;;;;;;;13.60;4.25;;;;;;;25.80;55.97;99710.00;5558847;32;34309;-58
2023/09/22 12:33:02;;;;;;;10.15;3.70;;;;;;;25.70;55.48;99704.16;5558175;32;34513;-58
2023/09/22 12:36:06;;;;;;;9.10;4.15;;;;;;;25.76;54.36;99710.00;5564286;32;34383;-59
2023/09/22 12:39:10;;;;;;;12.30;3.97;;;;;;;25.84;53.54;99708.06;5563283;32;33642;-58
2023/09/22 12:42:13;;;;;;;28.50;4.90;;;;;;;25.87;51.16;99716.28;5552489;32;33658;-59
2023/09/22 12:45:16;;;;;;;16.60;3.58;;;;;;;25.78;51.79;99713.13;5565636;32;32206;-59
2023/09/22 12:48:19;;;;;;;16.62;4.62;;;;;;;25.81;51.16;99714.34;5557415;32;33639;-58
2023/09/22 12:51:21;;;;;;;13.68;4.75;;;;;;;25.89;52.90;99716.63;5562990;32;33765;-58
2023/09/22 12:54:24;;;;;;;14.90;4.70;;;;;;;25.96;51.84;99713.88;5565232;32;34323;-58
2023/09/22 12:57:28;;;;;;;19.80;4.40;;;;;;;25.95;52.64;99709.53;5565073;32;33770;-58
2023/09/22 13:00:39;;;;;;;22.58;4.85;;;;;;;25.92;53.06;99704.84;5565715;32;34346;-59
2023/09/22 13:03:41;;;;;;;17.12;4.57;;;;;;;26.09;53.17;99700.44;5564464;32;33654;-58
2023/09/22 13:06:44;;;;;;;12.02;4.03;;;;;;;26.02;53.26;99706.75;5561178;32;34355;-59
2023/09/22 13:09:47;;;;;;;12.20;4.28;;;;;;;26.05;53.53;99694.19;5565258;32;33612;-59
2023/09/22 13:12:50;;;;;;;17.83;4.93;;;;;;;26.00;53.99;99694.63;5564178;32;33807;-58
2023/09/22 13:15:52;;;;;;;16.17;5.57;;;;;;;26.16;52.87;99681.19;5566482;32;33602;-59
2023/09/22 13:18:54;;;;;;;14.48;4.03;;;;;;;26.02;53.97;99695.00;5562179;32;34410;-59
2023/09/22 13:21:57;;;;;;;14.75;4.68;;;;;;;26.16;51.94;99694.16;5559286;32;33640;-58
2023/09/22 13:24:59;;;;;;;10.48;4.05;;;;;;;26.20;51.60;99695.66;5555793;32;34467;-59
2023/09/22 13:28:03;;;;;;;16.77;4.50;;;;;;;26.02;52.13;99695.00;5555809;32;33151;-59
2023/09/22 13:31:06;;;;;;;14.10;4.32;;;;;;;25.98;53.09;99681.28;5559482;32;33734;-59
2023/09/22 13:34:08;;;;;;;14.30;4.20;;;;;;;26.00;53.03;99684.41;5556122;32;34224;-59
2023/09/22 13:37:11;;;;;;;14.00;4.25;;;;;;;26.01;53.93;99688.72;5561418;31;33757;-60
2023/09/22 13:40:13;;;;;;;15.90;4.30;;;;;;;26.05;54.30;99683.19;5566030;32;34387;-59
2023/09/22 13:43:16;;;;;;;17.52;4.15;;;;;;;25.95;52.99;99673.84;5564415;32;33686;-58
2023/09/22 13:46:19;;;;;;;19.08;3.75;;;;;;;25.98;52.89;99680.50;5564387;32;33592;-58
2023/09/22 13:49:21;;;;;;;25.27;4.55;;;;;;;26.06;52.26;99679.28;5555344;32;33252;-60
2023/09/22 13:52:24;;;;;;;14.57;4.40;;;;;;;25.88;53.59;99678.59;5561974;32;33685;-60
2023/09/22 13:55:27;;;;;;;21.00;4.80;;;;;;;25.96;53.26;99682.84;5561418;32;34377;-58
2023/09/22 13:58:32;;;;;;;16.23;4.57;;;;;;;25.93;53.21;99687.22;5556612;32;33647;-57
2023/09/22 14:01:35;;;;;;;18.33;4.50;;;;;;;25.94;52.71;99672.28;5555270;32;33716;-57
2023/09/22 14:04:37;;;;;;;19.60;4.53;;;;;;;26.11;53.00;99675.31;5560864;32;33663;-57
2023/09/22 14:07:40;;;;;;;27.20;4.57;;;;;;;26.02;51.81;99673.78;5566609;32;33287;-57
2023/09/22 14:10:43;;;;;;;17.25;3.85;;;;;;;26.04;50.42;99662.44;5561306;32;33652;-57
2023/09/22 14:13:45;;;;;;;21.25;4.70;;;;;;;26.05;50.68;99676.94;5562771;32;33311;-57
2023/09/22 14:16:49;;;;;;;12.30;3.87;;;;;;;26.08;50.27;99673.37;5556441;32;34388;-57
2023/09/22 14:19:51;;;;;;;12.27;3.78;;;;;;;25.96;49.78;99680.91;5567892;32;33677;-56
2023/09/22 14:22:53;;;;;;;14.82;3.62;;;;;;;25.94;49.78;99674.25;5566350;32;33700;-58
2023/09/22 14:25:58;;;;;;;12.95;4.05;;;;;;;26.01;51.25;99675.00;5564343;32;33669;-57
2023/09/22 14:29:01;;;;;;;10.85;3.58;;;;;;;26.10;51.38;99668.28;5567703;32;34248;-58
2023/09/22 14:32:03;;;;;;;11.27;3.67;;;;;;;26.14;50.92;99675.31;5567983;32;33612;-58
2023/09/22 14:35:07;;;;;;;12.80;3.67;;;;;;;26.15;50.21;99671.38;5568104;32;34349;-58
2023/09/22 14:38:09;;;;;;;10.68;3.58;;;;;;;26.19;50.73;99671.34;5569225;32;34331;-58
2023/09/22 14:41:12;;;;;;;16.37;3.72;;;;;;;26.15;50.29;99670.59;5568016;32;33749;-58
2023/09/22 14:44:14;;;;;;;23.52;4.78;;;;;;;26.08;50.87;99662.41;5569149;32;33646;-59
2023/09/22 14:47:17;;;;;;;14.95;3.95;;;;;;;25.97;51.83;99670.72;5568908;32;33660;-59
2023/09/22 14:50:21;;;;;;;30.83;4.55;;;;;;;25.88;51.25;99673.13;5568993;32;33800;-59
2023/09/22 14:53:23;;;;;;;21.73;4.32;;;;;;;25.81;52.37;99667.66;5568805;32;33552;-58
2023/09/22 14:56:29;;;;;;;16.50;4.82;;;;;;;25.76;52.30;99671.56;5568687;32;34211;-58
2023/09/22 14:59:32;;;;;;;12.57;3.67;;;;;;;25.74;50.94;99662.97;5568950;32;33595;-58
2023/09/22 15:02:34;;;;;;;13.55;4.32;;;;;;;25.78;50.91;99670.00;5568758;32;33902;-59
2023/09/22 15:05:37;;;;;;;11.70;3.53;;;;;;;25.77;51.32;99670.41;5569073;32;34334;-59
2023/09/22 15:08:41;;;;;;;18.80;3.97;;;;;;;25.73;50.40;99667.69;5569187;32;33977;-58
2023/09/22 15:11:44;;;;;;;64.18;7.12;;;;;;;25.86;50.76;99676.28;5569179;32;33575;-58
2023/09/22 15:14:46;;;;;;;20.42;4.35;;;;;;;25.85;50.47;99669.19;5568349;32;34428;-58
2023/09/22 15:17:49;;;;;;;12.48;3.72;;;;;;;25.77;51.82;99668.44;5568520;32;33735;-58
2023/09/22 15:21:03;;;;;;;11.48;3.58;;;;;;;25.80;51.40;99669.62;5568729;32;34387;-59
2023/09/22 15:24:06;;;;;;;11.15;3.60;;;;;;;25.69;50.89;99666.13;5569105;32;33612;-59
